createdAt,value
2023-05-06T00:02:16.394Z,101453.03
2023-05-06T00:04:43.577Z,101439.09
2023-05-06T00:07:12.788Z,101434.72
2023-05-06T00:09:39.706Z,101440.81
2023-05-06T00:12:06.879Z,101433.84
2023-05-06T00:14:34.290Z,101428.59
2023-05-06T00:17:02.506Z,101432.09
2023-05-06T00:19:31.640Z,101429.47
2023-05-06T00:21:58.652Z,101429.47
2023-05-06T00:24:26.489Z,101426.88
2023-05-06T00:26:53.663Z,101425.97
2023-05-06T00:29:21.055Z,101418.13
2023-05-06T00:31:49.407Z,101426.84
2023-05-06T00:34:17.904Z,101427.69
2023-05-06T00:36:45.040Z,101421.59
2023-05-06T00:39:12.666Z,101422.47
2023-05-06T00:41:39.890Z,101430.28
2023-05-06T00:44:08.445Z,101428.53
2023-05-06T00:46:37.983Z,101419.81
2023-05-06T00:49:06.070Z,101421.56
2023-05-06T00:51:33.803Z,101425.06
2023-05-06T00:54:02.075Z,101415.47
2023-05-06T00:56:29.718Z,101414.63
2023-05-06T00:58:56.455Z,101416.38
2023-05-06T01:01:24.527Z,101416.41
2023-05-06T01:03:57.060Z,101413.75
2023-05-06T01:06:33.770Z,101416.38
2023-05-06T01:09:29.743Z,101415.53
2023-05-06T01:12:04.155Z,101408.59
2023-05-06T01:14:55.578Z,101412.94
2023-05-06T01:17:26.653Z,101405.97
2023-05-06T01:19:59.357Z,101411.19
2023-05-06T01:22:31.246Z,101411.22
2023-05-06T01:24:58.888Z,101407.69
2023-05-06T01:27:26.139Z,101409.47
2023-05-06T01:29:53.303Z,101397.25
2023-05-06T01:32:32.078Z,101407.72
2023-05-06T01:35:11.934Z,101407.72
2023-05-06T01:37:45.592Z,101395.53
2023-05-06T01:40:14.372Z,101395.53
2023-05-06T01:42:42.198Z,101392.06
2023-05-06T01:45:11.501Z,101390.31
2023-05-06T01:47:40.618Z,101392.06
2023-05-06T01:50:08.843Z,101388.56
2023-05-06T01:52:38.814Z,101403.38
2023-05-06T01:55:07.274Z,101393.81
2023-05-06T01:57:35.469Z,101405.09
2023-05-06T02:00:02.751Z,101402.50
2023-05-06T02:02:30.815Z,101401.63
2023-05-06T02:04:58.829Z,101405.97
2023-05-06T02:07:25.904Z,101407.72
2023-05-06T02:09:52.899Z,101399.91
2023-05-06T02:12:20.454Z,101401.63
2023-05-06T02:14:47.633Z,101413.81
2023-05-06T02:17:15.825Z,101409.44
2023-05-06T02:19:42.854Z,101405.97
2023-05-06T02:22:09.953Z,101409.44
2023-05-06T02:24:36.760Z,101412.91
2023-05-06T02:27:06.442Z,101409.44
2023-05-06T02:29:34.406Z,101404.19
2023-05-06T02:32:01.460Z,101416.38
2023-05-06T02:34:30.453Z,101410.28
2023-05-06T02:36:58.277Z,101414.63
2023-05-06T02:39:25.454Z,101411.13
2023-05-06T02:41:54.111Z,101418.09
2023-05-06T02:44:21.471Z,101408.53
2023-05-06T02:46:48.777Z,101405.91
2023-05-06T02:49:17.288Z,101406.81
2023-05-06T02:51:46.286Z,101398.13
2023-05-06T02:54:13.530Z,101409.44
2023-05-06T02:56:43.104Z,101405.97
2023-05-06T02:59:10.786Z,101404.22
2023-05-06T03:01:37.676Z,101405.97
2023-05-06T03:04:05.516Z,101401.63
2023-05-06T03:06:32.502Z,101405.97
2023-05-06T03:08:59.740Z,101407.69
2023-05-06T03:11:27.093Z,101412.06
2023-05-06T03:13:55.662Z,101409.44
2023-05-06T03:16:23.185Z,101411.19
2023-05-06T03:18:50.591Z,101403.38
2023-05-06T03:21:18.599Z,101411.19
2023-05-06T03:23:46.975Z,101400.75
2023-05-06T03:26:15.557Z,101402.47
2023-05-06T03:28:44.542Z,101403.34
2023-05-06T03:31:11.444Z,101404.22
2023-05-06T03:33:38.439Z,101393.78
2023-05-06T03:36:05.874Z,101400.75
2023-05-06T03:38:33.756Z,101399.00
2023-05-06T03:41:02.346Z,101397.25
2023-05-06T03:43:31.283Z,101396.38
2023-05-06T03:46:00.706Z,101404.25
2023-05-06T03:48:30.124Z,101391.16
2023-05-06T03:50:59.994Z,101393.78
2023-05-06T03:53:28.797Z,101391.16
2023-05-06T03:55:57.901Z,101398.13
2023-05-06T03:58:27.859Z,101395.53
2023-05-06T04:00:56.766Z,101395.53
2023-05-06T04:03:24.711Z,101399.00
2023-05-06T04:05:51.876Z,101409.44
2023-05-06T04:08:19.466Z,101398.16
2023-05-06T04:10:47.714Z,101398.13
2023-05-06T04:13:18.697Z,101395.53
2023-05-06T04:15:45.679Z,101402.50
2023-05-06T04:18:19.056Z,101402.50
2023-05-06T04:20:49.628Z,101403.38
2023-05-06T04:23:17.946Z,101407.72
2023-05-06T04:25:48.642Z,101401.63
2023-05-06T04:28:17.907Z,101404.25
2023-05-06T04:30:46.784Z,101411.22
2023-05-06T04:33:16.871Z,101414.69
2023-05-06T04:35:53.099Z,101413.84
2023-05-06T04:38:21.852Z,101418.19
2023-05-06T04:40:49.636Z,101419.91
2023-05-06T04:43:17.270Z,101429.50
2023-05-06T04:45:51.509Z,101430.38
2023-05-06T04:48:19.348Z,101425.16
2023-05-06T04:50:47.993Z,101435.59
2023-05-06T04:53:15.832Z,101430.38
2023-05-06T04:55:43.570Z,101433.84
2023-05-06T04:58:10.381Z,101444.31
2023-05-06T05:00:37.595Z,101446.06
2023-05-06T05:03:06.656Z,101441.72
2023-05-06T05:05:34.824Z,101446.06
2023-05-06T05:08:01.857Z,101439.06
2023-05-06T05:10:29.196Z,101445.19
2023-05-06T05:12:56.701Z,101444.31
2023-05-06T05:15:24.093Z,101444.28
2023-05-06T05:17:51.230Z,101438.22
2023-05-06T05:20:18.918Z,101446.91
2023-05-06T05:22:46.746Z,101450.38
2023-05-06T05:25:13.845Z,101456.50
2023-05-06T05:27:42.251Z,101461.72
2023-05-06T05:30:10.514Z,101466.94
2023-05-06T05:32:37.788Z,101463.50
2023-05-06T05:35:05.969Z,101465.22
2023-05-06T05:37:33.166Z,101466.97
2023-05-06T05:40:00.567Z,101456.50
2023-05-06T05:42:27.851Z,101459.09
2023-05-06T05:44:55.780Z,101462.59
2023-05-06T05:47:23.041Z,101472.16
2023-05-06T05:49:50.322Z,101472.16
2023-05-06T05:52:17.807Z,101484.34
2023-05-06T05:54:44.951Z,101479.13
2023-05-06T05:57:11.740Z,101486.94
2023-05-06T05:59:39.468Z,101477.31
2023-05-06T06:02:06.472Z,101484.31
2023-05-06T06:04:33.474Z,101481.66
2023-05-06T06:07:01.999Z,101480.78
2023-05-06T06:09:28.967Z,101486.84
2023-05-06T06:11:56.209Z,101477.25
2023-05-06T06:14:23.201Z,101472.84
2023-05-06T06:16:50.073Z,101485.91
2023-05-06T06:19:17.142Z,101480.66
2023-05-06T06:21:44.541Z,101484.16
2023-05-06T06:24:12.773Z,101485.88
2023-05-06T06:26:39.693Z,101482.38
2023-05-06T06:29:06.666Z,101473.63
2023-05-06T06:31:35.048Z,101471.00
2023-05-06T06:34:06.305Z,101478.81
2023-05-06T06:36:33.422Z,101477.03
2023-05-06T06:39:00.188Z,101487.53
2023-05-06T06:41:28.257Z,101474.41
2023-05-06T06:43:56.019Z,101478.72
2023-05-06T06:46:23.631Z,101479.59
2023-05-06T06:48:50.728Z,101479.56
2023-05-06T06:51:17.997Z,101482.16
2023-05-06T06:53:48.381Z,101488.22
2023-05-06T06:56:16.113Z,101480.34
2023-05-06T06:58:43.258Z,101488.19
2023-05-06T07:01:11.103Z,101491.66
2023-05-06T07:03:38.121Z,101490.75
2023-05-06T07:06:05.364Z,101487.22
2023-05-06T07:08:32.549Z,101494.19
2023-05-06T07:10:59.403Z,101481.91
2023-05-06T07:13:27.237Z,101499.31
2023-05-06T07:15:54.588Z,101488.78
2023-05-06T07:18:21.476Z,101486.09
2023-05-06T07:20:48.227Z,101488.69
2023-05-06T07:23:16.124Z,101486.88
2023-05-06T07:25:42.993Z,101491.22
2023-05-06T07:28:09.978Z,101491.19
2023-05-06T07:30:39.900Z,101486.75
2023-05-06T07:33:07.694Z,101481.47
2023-05-06T07:35:34.904Z,101477.94
2023-05-06T07:38:02.171Z,101474.38
2023-05-06T07:40:29.469Z,101488.28
2023-05-06T07:42:57.030Z,101476.00
2023-05-06T07:45:25.330Z,101482.03
2023-05-06T07:47:52.846Z,101485.47
2023-05-06T07:50:20.237Z,101486.31
2023-05-06T07:52:47.245Z,101489.75
2023-05-06T07:55:14.474Z,101491.38
2023-05-06T07:57:41.501Z,101493.06
2023-05-06T08:00:10.623Z,101494.72
2023-05-06T08:02:39.455Z,101506.91
2023-05-06T08:05:08.938Z,101503.28
2023-05-06T08:07:44.212Z,101501.47
2023-05-06T08:10:11.508Z,101504.06
2023-05-06T08:12:39.148Z,101496.06
2023-05-06T08:15:07.246Z,101506.47
2023-05-06T08:17:34.354Z,101504.63
2023-05-06T08:20:01.627Z,101502.78
2023-05-06T08:22:29.936Z,101509.69
2023-05-06T08:24:57.522Z,101512.22
2023-05-06T08:27:24.862Z,101514.81
2023-05-06T08:29:52.003Z,101507.66
2023-05-06T08:32:19.052Z,101508.47
2023-05-06T08:34:46.120Z,101510.09
2023-05-06T08:37:13.133Z,101514.44
2023-05-06T08:39:39.936Z,101506.50
2023-05-06T08:42:11.403Z,101516.03
2023-05-06T08:44:39.702Z,101516.00
2023-05-06T08:47:06.858Z,101511.59
2023-05-06T08:49:34.290Z,101508.63
2023-05-06T08:52:05.126Z,101506.72
2023-05-06T08:54:35.849Z,101503.09
2023-05-06T08:57:05.937Z,101504.66
2023-05-06T08:59:33.884Z,101501.03
2023-05-06T09:02:03.294Z,101502.72
2023-05-06T09:04:31.256Z,101495.69
2023-05-06T09:06:59.175Z,101493.75
2023-05-06T09:09:27.188Z,101495.31
2023-05-06T09:11:57.234Z,101496.06
2023-05-06T09:14:26.049Z,101493.19
2023-05-06T09:16:53.549Z,101493.06
2023-05-06T09:19:22.127Z,101487.72
2023-05-06T09:21:51.367Z,101482.47
2023-05-06T09:24:18.760Z,101477.13
2023-05-06T09:26:47.110Z,101484.97
2023-05-06T09:29:14.630Z,101486.59
2023-05-06T09:31:47.654Z,101476.63
2023-05-06T09:34:15.913Z,101473.84
2023-05-06T09:36:42.869Z,101472.75
2023-05-06T09:39:10.207Z,101477.94
2023-05-06T09:41:37.679Z,101467.25
2023-05-06T09:44:05.656Z,101473.31
2023-05-06T09:46:33.109Z,101465.31
2023-05-06T09:49:00.441Z,101460.03
2023-05-06T09:51:28.649Z,101465.09
2023-05-06T09:53:57.852Z,101456.13
2023-05-06T09:56:26.341Z,101459.50
2023-05-06T09:58:58.522Z,101463.59
2023-05-06T10:01:35.971Z,101460.09
2023-05-06T10:04:10.026Z,101452.22
2023-05-06T10:06:45.751Z,101457.44
2023-05-06T10:09:13.460Z,101447.50
2023-05-06T10:11:40.607Z,101455.34
2023-05-06T10:14:07.923Z,101448.13
2023-05-06T10:16:36.902Z,101451.31
2023-05-06T10:19:06.736Z,101446.72
2023-05-06T10:21:39.390Z,101441.34
2023-05-06T10:24:11.431Z,101442.41
2023-05-06T10:26:39.659Z,101431.28
2023-05-06T10:29:11.066Z,101444.41
2023-05-06T10:31:53.949Z,101446.97
2023-05-06T10:34:21.976Z,101441.59
2023-05-06T10:36:53.205Z,101431.69
2023-05-06T10:39:20.999Z,101432.38
2023-05-06T10:41:48.944Z,101439.06
2023-05-06T10:44:16.601Z,101430.81
2023-05-06T10:47:00.526Z,101425.28
2023-05-06T10:49:27.708Z,101429.66
2023-05-06T10:52:12.960Z,101425.59
2023-05-06T10:54:51.326Z,101419.19
2023-05-06T10:57:21.724Z,101420.38
2023-05-06T10:59:49.514Z,101417.63
2023-05-06T11:02:20.279Z,101411.16
2023-05-06T11:04:53.146Z,101414.25
2023-05-06T11:07:24.440Z,101411.63
2023-05-06T11:10:08.388Z,101410.81
2023-05-06T11:12:51.123Z,101402.69
2023-05-06T11:15:26.678Z,101404.09
2023-05-06T11:17:55.473Z,101409.63
2023-05-06T11:20:24.637Z,101404.44
2023-05-06T11:22:52.674Z,101403.34
2023-05-06T11:25:41.384Z,101403.34
2023-05-06T11:28:13.151Z,101390.88
2023-05-06T11:30:53.648Z,101398.28
2023-05-06T11:33:23.451Z,101406.81
2023-05-06T11:35:50.546Z,101393.41
2023-05-06T11:38:17.680Z,101402.81
2023-05-06T11:40:47.811Z,101399.34
2023-05-06T11:43:16.177Z,101394.81
2023-05-06T11:45:48.267Z,101392.75
2023-05-06T11:48:16.803Z,101392.81
2023-05-06T11:50:48.516Z,101386.09
2023-05-06T11:53:21.140Z,101391.56
2023-05-06T11:55:49.813Z,101380.25
2023-05-06T11:58:18.659Z,101381.91
2023-05-06T12:00:51.930Z,101375.06
2023-05-06T12:03:20.110Z,101376.66
2023-05-06T12:05:49.202Z,101374.75
2023-05-06T12:08:26.664Z,101374.63
2023-05-06T12:10:57.784Z,101373.53
2023-05-06T12:13:25.370Z,101364.78
2023-05-06T12:15:58.777Z,101377.75
2023-05-06T12:18:26.263Z,101369.84
2023-05-06T12:20:54.819Z,101368.66
2023-05-06T12:23:24.063Z,101370.13
2023-05-06T12:26:02.767Z,101370.13
2023-05-06T12:28:31.584Z,101367.22
2023-05-06T12:30:58.954Z,101370.66
2023-05-06T12:33:26.005Z,101376.13
2023-05-06T12:35:54.833Z,101373.88
2023-05-06T12:38:21.899Z,101371.00
2023-05-06T12:40:55.543Z,101363.53
2023-05-06T12:43:30.650Z,101367.91
2023-05-06T12:46:05.288Z,101370.75
2023-05-06T12:48:32.595Z,101357.25
2023-05-06T12:50:59.588Z,101365.84
2023-05-06T12:53:34.946Z,101366.81
2023-05-06T12:56:01.982Z,101359.34
2023-05-06T12:58:28.867Z,101360.38
2023-05-06T13:00:55.988Z,101362.03
2023-05-06T13:03:23.040Z,101355.78
2023-05-06T13:05:51.774Z,101352.22
2023-05-06T13:08:18.695Z,101340.50
2023-05-06T13:10:46.605Z,101340.63
2023-05-06T13:13:13.986Z,101347.13
2023-05-06T13:15:42.992Z,101345.28
2023-05-06T13:18:09.896Z,101346.09
2023-05-06T13:20:37.075Z,101345.16
2023-05-06T13:23:04.686Z,101343.31
2023-05-06T13:25:31.627Z,101349.44
2023-05-06T13:27:58.525Z,101341.44
2023-05-06T13:30:25.622Z,101337.81
2023-05-06T13:32:52.532Z,101340.53
2023-05-06T13:35:19.391Z,101341.94
2023-05-06T13:37:46.684Z,101335.59
2023-05-06T13:40:14.714Z,101332.06
2023-05-06T13:42:41.645Z,101324.38
2023-05-06T13:45:09.927Z,101324.13
2023-05-06T13:47:36.988Z,101328.75
2023-05-06T13:50:05.914Z,101326.13
2023-05-06T13:52:33.194Z,101321.28
2023-05-06T13:55:00.673Z,101317.91
2023-05-06T13:57:27.382Z,101317.81
2023-05-06T13:59:54.614Z,101316.25
2023-05-06T14:02:21.602Z,101327.38
2023-05-06T14:04:49.013Z,101320.78
2023-05-06T14:07:15.923Z,101316.84
2023-05-06T14:09:42.967Z,101317.22
2023-05-06T14:12:09.832Z,101316.19
2023-05-06T14:14:36.956Z,101308.31
2023-05-06T14:17:04.217Z,101317.97
2023-05-06T14:19:31.406Z,101319.97
2023-05-06T14:21:58.296Z,101308.75
2023-05-06T14:24:25.036Z,101316.44
2023-05-06T14:26:52.926Z,101310.94
2023-05-06T14:29:19.773Z,101306.63
2023-05-06T14:31:46.483Z,101312.81
2023-05-06T14:34:13.747Z,101301.38
2023-05-06T14:36:40.449Z,101307.06
2023-05-06T14:39:07.659Z,101303.47
2023-05-06T14:41:35.093Z,101294.81
2023-05-06T14:44:01.984Z,101298.94
2023-05-06T14:46:29.730Z,101301.81
2023-05-06T14:48:56.873Z,101295.25
2023-05-06T14:51:24.178Z,101302.44
2023-05-06T14:53:51.353Z,101303.03
2023-05-06T14:56:18.631Z,101292.66
2023-05-06T14:58:45.463Z,101294.78
2023-05-06T15:01:13.591Z,101296.66
2023-05-06T15:03:40.932Z,101302.19
2023-05-06T15:06:08.468Z,101300.63
2023-05-06T15:08:36.102Z,101305.28
2023-05-06T15:11:04.305Z,101306.00
2023-05-06T15:13:31.434Z,101308.81
2023-05-06T15:15:58.540Z,101307.78
2023-05-06T15:18:25.453Z,101297.47
2023-05-06T15:20:55.020Z,101299.28
2023-05-06T15:23:22.299Z,101301.41
2023-05-06T15:25:49.463Z,101300.53
2023-05-06T15:28:16.427Z,101325.25
2023-05-06T15:30:43.835Z,101333.38
2023-05-06T15:33:12.386Z,101339.00
2023-05-06T15:35:39.062Z,101341.34
2023-05-06T15:38:06.089Z,101346.59
2023-05-06T15:40:32.941Z,101345.91
2023-05-06T15:42:59.804Z,101343.50
2023-05-06T15:45:27.162Z,101344.50
2023-05-06T15:47:55.483Z,101362.66
2023-05-06T15:50:32.473Z,101369.28
2023-05-06T15:53:02.119Z,101358.19
2023-05-06T15:55:29.676Z,101384.22
2023-05-06T15:57:59.131Z,101372.53
2023-05-06T16:00:27.917Z,101371.13
2023-05-06T16:02:55.183Z,101375.16
2023-05-06T16:05:22.345Z,101378.06
2023-05-06T16:07:51.650Z,101368.81
2023-05-06T16:10:19.203Z,101376.13
2023-05-06T16:12:50.267Z,101367.41
2023-05-06T16:15:19.816Z,101368.81
2023-05-06T16:17:46.749Z,101369.75
2023-05-06T16:20:13.758Z,101375.03
2023-05-06T16:22:41.114Z,101364.66
2023-05-06T16:25:09.123Z,101364.84
2023-05-06T16:27:35.928Z,101366.72
2023-05-06T16:30:03.082Z,101363.28
2023-05-06T16:32:31.016Z,101375.50
2023-05-06T16:34:59.402Z,101367.56
2023-05-06T16:37:26.659Z,101364.75
2023-05-06T16:39:53.520Z,101357.72
2023-05-06T16:42:20.238Z,101364.84
2023-05-06T16:44:47.049Z,101353.31
2023-05-06T16:47:14.204Z,101355.94
2023-05-06T16:49:41.298Z,101346.97
2023-05-06T16:52:08.865Z,101348.63
2023-05-06T16:54:36.082Z,101354.19
2023-05-06T16:57:03.908Z,101347.06
2023-05-06T16:59:31.198Z,101343.53
2023-05-06T17:01:58.500Z,101349.91
2023-05-06T17:04:26.710Z,101343.63
2023-05-06T17:06:55.023Z,101338.28
2023-05-06T17:09:22.658Z,101341.69
2023-05-06T17:11:50.234Z,101341.78
2023-05-06T17:14:17.043Z,101338.44
2023-05-06T17:16:45.250Z,101343.53
2023-05-06T17:19:12.602Z,101330.31
2023-05-06T17:21:39.971Z,101331.50
2023-05-06T17:24:07.425Z,101333.25
2023-05-06T17:26:35.003Z,101333.25
2023-05-06T17:29:01.867Z,101334.94
2023-05-06T17:31:29.160Z,101337.75
2023-05-06T17:33:57.375Z,101340.38
2023-05-06T17:36:24.611Z,101333.41
2023-05-06T17:39:17.497Z,101336.16
2023-05-06T17:41:44.325Z,101335.41
2023-05-06T17:44:11.925Z,101331.16
2023-05-06T17:46:38.953Z,101340.84
2023-05-06T17:49:06.416Z,101327.75
2023-05-06T17:51:33.737Z,101337.59
2023-05-06T17:54:00.863Z,101327.94
2023-05-06T17:56:27.606Z,101334.25
2023-05-06T17:58:55.100Z,101336.09
2023-05-06T18:01:22.022Z,101324.84
2023-05-06T18:03:49.987Z,101326.78
2023-05-06T18:06:16.858Z,101338.28
2023-05-06T18:08:45.028Z,101339.16
2023-05-06T18:11:12.007Z,101335.00
2023-05-06T18:13:39.304Z,101346.44
2023-05-06T18:16:06.707Z,101345.53
2023-05-06T18:18:33.634Z,101342.13
2023-05-06T18:21:00.535Z,101345.72
2023-05-06T18:23:30.163Z,101344.88
2023-05-06T18:25:56.976Z,101342.22
2023-05-06T18:28:24.006Z,101355.41
2023-05-06T18:30:51.231Z,101362.53
2023-05-06T18:33:18.066Z,101361.66
2023-05-06T18:35:45.513Z,101365.31
2023-05-06T18:38:13.529Z,101363.66
2023-05-06T18:40:41.172Z,101371.66
2023-05-06T18:43:08.336Z,101366.53
2023-05-06T18:45:36.127Z,101372.75
2023-05-06T18:48:03.857Z,101372.84
2023-05-06T18:50:33.612Z,101368.53
2023-05-06T18:53:00.918Z,101374.00
2023-05-06T18:55:27.968Z,101376.66
2023-05-06T18:57:55.408Z,101374.16
2023-05-06T19:00:23.781Z,101383.91
2023-05-06T19:02:51.038Z,101379.53
2023-05-06T19:05:19.069Z,101386.56
2023-05-06T19:07:46.518Z,101378.72
2023-05-06T19:10:13.847Z,101374.41
2023-05-06T19:12:41.753Z,101387.78
2023-05-06T19:15:10.023Z,101385.28
2023-05-06T19:17:37.361Z,101386.25
2023-05-06T19:20:05.102Z,101382.75
2023-05-06T19:22:33.054Z,101387.19
2023-05-06T19:25:00.093Z,101390.81
2023-05-06T19:27:26.945Z,101387.38
2023-05-06T19:29:53.946Z,101389.16
2023-05-06T19:32:21.157Z,101388.34
2023-05-06T19:34:47.883Z,101384.88
2023-05-06T19:37:15.325Z,101388.41
2023-05-06T19:39:42.651Z,101379.69
2023-05-06T19:42:09.497Z,101376.19
2023-05-06T19:44:36.432Z,101379.69
2023-05-06T19:47:03.527Z,101386.78
2023-05-06T19:49:32.208Z,101385.91
2023-05-06T19:51:59.487Z,101387.66
2023-05-06T19:54:27.014Z,101392.97
2023-05-06T19:56:54.038Z,101391.28
2023-05-06T19:59:21.133Z,101395.69
2023-05-06T20:01:48.826Z,101399.19
2023-05-06T20:04:16.179Z,101393.13
2023-05-06T20:06:43.324Z,101398.53
2023-05-06T20:09:10.541Z,101397.72
2023-05-06T20:11:37.787Z,101404.78
2023-05-06T20:14:04.767Z,101401.25
2023-05-06T20:16:31.692Z,101399.47
2023-05-06T20:19:00.220Z,101394.19
2023-05-06T20:21:28.798Z,101394.19
2023-05-06T20:23:55.882Z,101397.69
2023-05-06T20:26:24.956Z,101388.94
2023-05-06T20:28:53.163Z,101393.31
2023-05-06T20:31:20.479Z,101400.34
2023-05-06T20:33:47.410Z,101392.44
2023-05-06T20:36:14.592Z,101399.53
2023-05-06T20:38:41.635Z,101397.78
2023-05-06T20:41:09.141Z,101404.78
2023-05-06T20:43:36.146Z,101403.88
2023-05-06T20:46:04.950Z,101405.63
2023-05-06T20:48:32.076Z,101401.25
2023-05-06T20:50:59.520Z,101409.13
2023-05-06T20:53:27.195Z,101405.63
2023-05-06T20:55:54.431Z,101402.09
2023-05-06T20:58:21.563Z,101404.66
2023-05-06T21:00:50.002Z,101414.31
2023-05-06T21:03:17.110Z,101406.41
2023-05-06T21:05:44.491Z,101395.88
2023-05-06T21:08:12.517Z,101396.72
2023-05-06T21:10:39.496Z,101403.72
2023-05-06T21:13:06.981Z,101397.59
2023-05-06T21:15:34.493Z,101397.59
2023-05-06T21:18:01.643Z,101409.03
2023-05-06T21:20:28.555Z,101401.16
2023-05-06T21:22:55.824Z,101404.66
2023-05-06T21:25:23.233Z,101402.91
2023-05-06T21:27:50.261Z,101401.16
2023-05-06T21:30:17.347Z,101403.78
2023-05-06T21:32:44.889Z,101398.53
2023-05-06T21:35:12.135Z,101400.28
2023-05-06T21:37:39.665Z,101402.09
2023-05-06T21:40:07.368Z,101400.34
2023-05-06T21:42:34.513Z,101397.66
2023-05-06T21:45:02.129Z,101394.13
2023-05-06T21:47:29.659Z,101395.88
2023-05-06T21:49:56.791Z,101399.41
2023-05-06T21:52:24.527Z,101395.03
2023-05-06T21:54:54.419Z,101396.84
2023-05-06T21:57:21.588Z,101392.44
2023-05-06T21:59:48.828Z,101393.34
2023-05-06T22:02:16.170Z,101387.25
2023-05-06T22:04:42.917Z,101380.31
2023-05-06T22:07:10.163Z,101381.16
2023-05-06T22:09:37.056Z,101373.31
2023-05-06T22:12:06.611Z,101372.47
2023-05-06T22:14:41.222Z,101366.38
2023-05-06T22:17:10.367Z,101377.78
2023-05-06T22:19:38.561Z,101375.16
2023-05-06T22:22:06.522Z,101380.50
2023-05-06T22:24:34.260Z,101375.22
2023-05-06T22:27:01.818Z,101377.91
2023-05-06T22:29:29.196Z,101377.91
2023-05-06T22:31:56.882Z,101381.44
2023-05-06T22:34:24.206Z,101378.88
2023-05-06T22:36:51.272Z,101375.41
2023-05-06T22:39:18.412Z,101381.53
2023-05-06T22:41:45.650Z,101382.44
2023-05-06T22:44:13.793Z,101378.94
2023-05-06T22:46:40.835Z,101380.66
2023-05-06T22:49:09.174Z,101377.16
2023-05-06T22:51:36.121Z,101380.66
2023-05-06T22:54:05.162Z,101389.41
2023-05-06T22:56:32.559Z,101387.69
2023-05-06T22:59:00.112Z,101386.81
2023-05-06T23:01:31.883Z,101384.19
2023-05-06T23:04:00.318Z,101373.66
2023-05-06T23:06:27.692Z,101376.34
2023-05-06T23:08:56.081Z,101369.34
2023-05-06T23:11:23.180Z,101377.22
2023-05-06T23:13:51.879Z,101374.59
2023-05-06T23:16:20.948Z,101378.09
2023-05-06T23:18:48.579Z,101381.66
2023-05-06T23:21:15.438Z,101387.81
2023-05-06T23:23:42.384Z,101386.94
2023-05-06T23:26:09.680Z,101385.19
2023-05-06T23:28:36.761Z,101387.00
2023-05-06T23:31:03.847Z,101387.91
2023-05-06T23:33:30.942Z,101384.44
2023-05-06T23:36:02.558Z,101390.56
2023-05-06T23:38:30.271Z,101383.56
2023-05-06T23:40:57.255Z,101389.69
2023-05-06T23:43:24.436Z,101387.94
2023-05-06T23:45:51.737Z,101384.44
2023-05-06T23:48:19.240Z,101388.81
2023-05-06T23:50:46.121Z,101386.22
2023-05-06T23:53:16.181Z,101381.84
2023-05-06T23:55:43.479Z,101387.16
2023-05-06T23:58:10.466Z,101388.00
